createdAt,value
2022-08-05T00:01:20.873Z,6.30
2022-08-05T00:04:00.188Z,3.97
2022-08-05T00:06:33.209Z,3.47
2022-08-05T00:09:20.256Z,5.40
2022-08-05T00:12:06.991Z,4.80
2022-08-05T00:14:51.718Z,5.10
2022-08-05T00:17:37.953Z,3.73
2022-08-05T00:20:29.101Z,4.20
2022-08-05T00:23:12.481Z,5.27
2022-08-05T00:25:46.139Z,7.63
2022-08-05T00:28:32.922Z,4.07
2022-08-05T00:31:12.914Z,4.53
2022-08-05T00:34:54.891Z,3.50
2022-08-05T00:37:09.800Z,3.30
2022-08-05T00:39:22.374Z,3.77
2022-08-05T00:41:55.521Z,5.13
2022-08-05T00:44:41.513Z,3.13
2022-08-05T00:47:08.860Z,9.90
2022-08-05T00:49:49.351Z,4.23
2022-08-05T00:52:28.534Z,3.57
2022-08-05T00:54:57.628Z,3.93
2022-08-05T00:57:38.222Z,4.33
2022-08-05T01:00:14.153Z,4.63
2022-08-05T01:02:44.403Z,3.50
2022-08-05T01:05:12.786Z,2.50
2022-08-05T01:08:40.576Z,5.47
2022-08-05T01:10:40.640Z,3.60
2022-08-05T01:13:58.788Z,4.57
2022-08-05T01:16:27.169Z,4.43
2022-08-05T01:19:03.878Z,3.10
2022-08-05T01:22:06.968Z,3.97
2022-08-05T01:25:01.696Z,3.23
2022-08-05T01:28:15.552Z,5.40
2022-08-05T01:30:53.765Z,4.00
2022-08-05T01:33:29.555Z,5.63
2022-08-05T01:36:16.293Z,5.53
2022-08-05T01:38:48.607Z,4.80
2022-08-05T01:41:22.514Z,4.53
2022-08-05T01:43:56.367Z,4.43
2022-08-05T01:46:42.668Z,4.07
2022-08-05T01:49:23.594Z,4.60
2022-08-05T01:51:58.747Z,4.37
2022-08-05T01:54:46.143Z,5.97
2022-08-05T01:58:10.131Z,2.80
2022-08-05T02:00:12.417Z,8.80
2022-08-05T02:02:53.577Z,4.30
2022-08-05T02:05:28.672Z,4.83
2022-08-05T02:08:01.352Z,6.87
2022-08-05T02:10:36.988Z,6.30
2022-08-05T02:13:17.533Z,4.10
2022-08-05T02:15:53.977Z,6.50
2022-08-05T02:18:34.842Z,5.80
2022-08-05T02:21:14.735Z,4.80
2022-08-05T02:23:48.523Z,7.97
2022-08-05T02:26:26.645Z,6.20
2022-08-05T02:28:56.486Z,3.60
2022-08-05T02:31:34.965Z,5.63
2022-08-05T02:34:09.342Z,4.63
2022-08-05T02:36:42.680Z,4.77
2022-08-05T02:39:12.976Z,6.30
2022-08-05T02:42:01.347Z,4.67
2022-08-05T02:44:32.462Z,4.43
2022-08-05T02:47:02.806Z,7.60
2022-08-05T02:49:40.325Z,6.33
2022-08-05T02:52:25.871Z,3.37
2022-08-05T02:55:01.876Z,6.70
2022-08-05T02:58:09.235Z,7.50
2022-08-05T03:00:21.677Z,6.03
2022-08-05T03:02:52.977Z,5.87
2022-08-05T03:05:21.872Z,4.47
2022-08-05T03:08:11.402Z,5.80
2022-08-05T03:10:42.112Z,5.43
2022-08-05T03:13:28.527Z,6.47
2022-08-05T03:16:16.227Z,5.07
2022-08-05T03:18:48.720Z,5.40
2022-08-05T03:21:16.242Z,6.97
2022-08-05T03:23:45.624Z,4.37
2022-08-05T03:26:31.367Z,6.67
2022-08-05T03:28:59.842Z,8.43
2022-08-05T03:31:55.608Z,4.73
2022-08-05T03:34:16.971Z,9.57
2022-08-05T03:36:44.347Z,4.53
2022-08-05T03:39:13.159Z,8.43
2022-08-05T03:41:47.747Z,5.20
2022-08-05T03:44:20.215Z,5.93
2022-08-05T03:46:47.839Z,11.00
2022-08-05T03:49:17.582Z,9.13
2022-08-05T03:52:38.331Z,6.53
2022-08-05T03:55:00.074Z,4.90
2022-08-05T03:57:44.670Z,6.93
2022-08-05T04:00:16.271Z,6.03
2022-08-05T04:02:57.660Z,8.03
2022-08-05T04:05:33.696Z,7.07
2022-08-05T04:08:05.872Z,9.00
2022-08-05T04:10:45.092Z,7.13
2022-08-05T04:13:13.031Z,7.27
2022-08-05T04:16:02.830Z,7.20
2022-08-05T04:18:28.864Z,7.20
2022-08-05T04:20:59.149Z,7.87
2022-08-05T04:24:05.104Z,5.23
2022-08-05T04:26:17.460Z,8.90
2022-08-05T04:28:50.817Z,8.80
2022-08-05T04:31:19.387Z,6.83
2022-08-05T04:34:18.549Z,6.23
2022-08-05T04:36:44.763Z,7.10
2022-08-05T04:39:17.483Z,11.77
2022-08-05T04:41:45.948Z,6.83
2022-08-05T04:44:20.993Z,7.00
2022-08-05T04:46:51.901Z,5.43
2022-08-05T04:49:24.754Z,7.33
2022-08-05T04:52:07.747Z,8.80
2022-08-05T04:54:35.195Z,5.67
2022-08-05T04:57:02.518Z,5.80
2022-08-05T04:59:38.934Z,5.60
2022-08-05T05:02:36.305Z,8.83
2022-08-05T05:05:01.837Z,6.27
2022-08-05T05:07:32.691Z,6.53
2022-08-05T05:10:06.460Z,8.50
2022-08-05T05:12:34.144Z,6.00
2022-08-05T05:15:10.781Z,8.13
2022-08-05T05:17:57.083Z,6.27
2022-08-05T05:20:28.747Z,6.33
2022-08-05T05:22:58.414Z,4.67
2022-08-05T05:25:40.432Z,5.60
2022-08-05T05:28:09.294Z,5.73
2022-08-05T05:30:36.996Z,8.53
2022-08-05T05:33:16.240Z,6.87
2022-08-05T05:35:45.857Z,5.10
2022-08-05T05:38:22.649Z,8.30
2022-08-05T05:40:55.844Z,7.63
2022-08-05T05:43:54.546Z,5.30
2022-08-05T05:46:15.776Z,8.27
2022-08-05T05:48:47.888Z,7.47
2022-08-05T05:51:21.197Z,8.07
2022-08-05T05:53:58.306Z,9.27
2022-08-05T05:56:32.307Z,10.97
2022-08-05T05:59:03.452Z,8.83
2022-08-05T06:01:37.382Z,16.37
2022-08-05T06:04:07.569Z,6.70
2022-08-05T06:06:35.543Z,8.40
2022-08-05T06:09:05.747Z,7.17
2022-08-05T06:11:35.342Z,6.23
2022-08-05T06:14:06.950Z,5.23
2022-08-05T06:16:37.202Z,6.40
2022-08-05T06:19:07.566Z,5.73
2022-08-05T06:21:38.709Z,5.83
2022-08-05T06:24:11.959Z,9.40
2022-08-05T06:26:51.478Z,6.27
2022-08-05T06:29:25.286Z,5.53
2022-08-05T06:32:21.220Z,10.47
2022-08-05T06:34:56.059Z,6.60
2022-08-05T06:37:52.276Z,9.43
2022-08-05T06:40:18.570Z,6.83
2022-08-05T06:42:51.991Z,8.37
2022-08-05T06:45:44.579Z,7.07
2022-08-05T06:48:36.207Z,11.13
2022-08-05T06:50:57.252Z,9.80
2022-08-05T06:53:28.230Z,15.03
2022-08-05T06:55:58.300Z,7.80
2022-08-05T06:58:35.023Z,5.93
2022-08-05T07:01:06.403Z,8.33
2022-08-05T07:03:34.915Z,7.40
2022-08-05T07:06:05.615Z,8.53
2022-08-05T07:08:42.708Z,9.33
2022-08-05T07:11:15.457Z,7.03
2022-08-05T07:14:01.619Z,9.57
2022-08-05T07:18:02.350Z,5.93
2022-08-05T07:22:28.504Z,8.20
2022-08-05T07:24:59.309Z,7.37
2022-08-05T07:27:58.852Z,12.37
2022-08-05T07:30:23.947Z,6.63
2022-08-05T07:32:55.655Z,6.13
2022-08-05T07:36:03.520Z,4.37
2022-08-05T07:38:32.803Z,7.30
2022-08-05T07:41:16.849Z,6.27
2022-08-05T07:43:50.554Z,7.40
2022-08-05T07:46:24.446Z,5.37
2022-08-05T07:49:01.973Z,7.73
2022-08-05T07:51:37.609Z,9.33
2022-08-05T07:54:10.549Z,5.93
2022-08-05T07:57:02.477Z,5.87
2022-08-05T07:59:38.271Z,6.40
2022-08-05T08:02:10.586Z,5.67
2022-08-05T08:04:47.407Z,7.43
2022-08-05T08:07:15.396Z,5.60
2022-08-05T08:09:43.624Z,7.17
2022-08-05T08:12:37.547Z,6.33
2022-08-05T08:15:13.823Z,7.50
2022-08-05T08:17:46.256Z,6.27
2022-08-05T08:20:43.383Z,7.30
2022-08-05T08:23:07.509Z,5.90
2022-08-05T08:25:59.898Z,4.73
2022-08-05T08:28:37.139Z,8.47
2022-08-05T08:31:17.333Z,7.07
2022-08-05T08:33:45.935Z,7.13
2022-08-05T08:36:38.939Z,10.97
2022-08-05T08:39:15.231Z,9.33
2022-08-05T08:41:52.563Z,7.57
2022-08-05T08:45:18.521Z,8.63
2022-08-05T08:48:06.356Z,9.10
2022-08-05T08:50:31.826Z,7.70
2022-08-05T08:53:12.455Z,7.07
2022-08-05T08:56:04.861Z,7.67
2022-08-05T08:58:43.523Z,8.97
2022-08-05T09:01:19.142Z,7.37
2022-08-05T09:03:54.386Z,7.10
2022-08-05T09:06:32.593Z,7.83
2022-08-05T09:09:04.684Z,6.63
2022-08-05T09:11:53.194Z,7.80
2022-08-05T09:14:56.816Z,5.23
2022-08-05T09:17:40.671Z,5.47
2022-08-05T09:20:08.353Z,5.10
2022-08-05T09:23:09.127Z,5.80
2022-08-05T09:26:01.504Z,8.03
2022-08-05T09:28:32.234Z,6.83
2022-08-05T09:31:23.483Z,5.37
2022-08-05T09:33:54.690Z,6.87
2022-08-05T09:36:55.106Z,6.80
2022-08-05T09:39:39.290Z,5.87
2022-08-05T09:42:23.517Z,4.13
2022-08-05T09:44:57.498Z,3.83
2022-08-05T09:47:49.115Z,7.47
2022-08-05T09:50:43.684Z,6.40
2022-08-05T09:53:12.065Z,7.10
2022-08-05T09:56:03.703Z,6.27
2022-08-05T09:58:36.935Z,5.13
2022-08-05T10:01:15.733Z,6.77
2022-08-05T10:04:03.559Z,6.97
2022-08-05T10:06:32.092Z,7.17
2022-08-05T10:09:25.101Z,5.50
2022-08-05T10:12:30.088Z,7.17
2022-08-05T10:15:17.212Z,4.77
2022-08-05T10:18:03.621Z,5.50
2022-08-05T10:20:33.089Z,5.87
2022-08-05T10:23:02.226Z,5.93
2022-08-05T10:25:32.699Z,3.60
2022-08-05T10:28:13.911Z,5.80
2022-08-05T10:32:54.908Z,5.57
2022-08-05T10:33:36.076Z,6.23
2022-08-05T10:36:05.876Z,6.50
2022-08-05T10:38:37.225Z,4.27
2022-08-05T10:41:23.275Z,4.77
2022-08-05T10:44:02.128Z,4.00
2022-08-05T10:46:50.563Z,6.43
2022-08-05T10:49:26.922Z,8.10
2022-08-05T10:52:03.315Z,5.07
2022-08-05T10:55:03.271Z,3.33
2022-08-05T10:57:34.125Z,4.87
2022-08-05T11:00:19.839Z,4.57
2022-08-05T11:03:24.981Z,5.23
2022-08-05T11:06:21.245Z,9.60
2022-08-05T11:09:24.408Z,3.97
2022-08-05T11:12:54.506Z,5.73
2022-08-05T11:15:59.465Z,8.67
2022-08-05T11:18:29.981Z,6.63
2022-08-05T11:20:59.630Z,4.83
2022-08-05T11:24:05.161Z,2.93
2022-08-05T11:26:33.284Z,3.90
2022-08-05T11:29:11.692Z,4.27
2022-08-05T11:31:54.138Z,3.43
2022-08-05T11:34:50.858Z,2.93
2022-08-05T11:38:29.525Z,3.03
2022-08-05T11:41:01.798Z,5.80
2022-08-05T11:44:04.575Z,5.07
2022-08-05T11:46:58.126Z,6.93
2022-08-05T11:49:39.385Z,2.97
2022-08-05T11:52:11.868Z,3.30
2022-08-05T11:54:41.804Z,5.23
2022-08-05T11:57:24.807Z,4.27
2022-08-05T11:59:54.198Z,4.47
2022-08-05T12:02:33.470Z,3.07
2022-08-05T12:05:07.101Z,3.53
2022-08-05T12:08:07.567Z,3.60
2022-08-05T12:10:43.037Z,3.67
2022-08-05T12:13:28.103Z,2.57
2022-08-05T12:16:14.879Z,3.37
2022-08-05T12:18:49.523Z,3.17
2022-08-05T12:21:24.305Z,2.20
2022-08-05T12:24:11.304Z,3.90
2022-08-05T12:26:43.979Z,3.70
2022-08-05T12:29:16.105Z,2.50
2022-08-05T12:31:53.821Z,2.53
2022-08-05T12:34:31.572Z,2.83
2022-08-05T12:37:10.485Z,2.60
2022-08-05T12:39:39.726Z,3.20
2022-08-05T12:42:16.680Z,2.73
2022-08-05T12:44:47.614Z,3.60
2022-08-05T12:47:27.257Z,3.03
2022-08-05T12:50:03.200Z,2.83
2022-08-05T12:52:39.396Z,2.93
2022-08-05T12:55:22.637Z,3.13
2022-08-05T12:58:50.751Z,2.67
2022-08-05T13:02:00.689Z,3.33
2022-08-05T13:03:33.155Z,3.80
2022-08-05T13:06:02.233Z,3.90
2022-08-05T13:08:32.439Z,3.90
2022-08-05T13:11:01.655Z,3.87
2022-08-05T13:14:05.756Z,3.17
2022-08-05T13:16:19.542Z,5.17
2022-08-05T13:18:58.390Z,4.27
2022-08-05T13:21:38.053Z,4.43
2022-08-05T13:24:27.699Z,4.60
2022-08-05T13:27:04.985Z,2.60
2022-08-05T13:29:38.388Z,3.67
2022-08-05T13:32:39.173Z,3.00
2022-08-05T13:35:10.227Z,2.70
2022-08-05T13:37:37.607Z,3.23
2022-08-05T13:40:16.210Z,4.70
2022-08-05T13:42:55.645Z,4.30
2022-08-05T13:45:23.136Z,3.20
2022-08-05T13:48:09.818Z,3.17
2022-08-05T13:50:47.773Z,4.27
2022-08-05T13:53:15.945Z,3.13
2022-08-05T13:55:50.259Z,2.97
2022-08-05T13:58:31.027Z,4.50
2022-08-05T14:00:59.677Z,3.23
2022-08-05T14:03:28.925Z,3.93
2022-08-05T14:06:25.949Z,2.00
2022-08-05T14:08:43.828Z,3.40
2022-08-05T14:11:21.038Z,4.33
2022-08-05T14:13:49.679Z,2.77
2022-08-05T14:16:22.813Z,3.10
2022-08-05T14:18:52.522Z,3.80
2022-08-05T14:22:08.114Z,1.87
2022-08-05T14:24:12.214Z,3.40
2022-08-05T14:26:51.479Z,2.70
2022-08-05T14:29:27.505Z,3.90
2022-08-05T14:32:12.374Z,1.87
2022-08-05T14:34:45.159Z,3.33
2022-08-05T14:37:14.104Z,2.07
2022-08-05T14:39:49.961Z,2.70
2022-08-05T14:42:25.000Z,4.10
2022-08-05T14:44:52.866Z,1.03
2022-08-05T14:48:02.442Z,2.40
2022-08-05T14:50:18.204Z,1.53
2022-08-05T14:52:53.467Z,2.03
2022-08-05T14:55:25.100Z,1.70
2022-08-05T14:57:54.552Z,2.33
2022-08-05T15:00:27.746Z,1.03
2022-08-05T15:02:56.307Z,0.97
2022-08-05T15:05:29.828Z,1.67
2022-08-05T15:08:18.054Z,1.63
2022-08-05T15:11:03.225Z,1.77
2022-08-05T15:13:45.862Z,1.00
2022-08-05T15:16:14.289Z,2.80
2022-08-05T15:18:41.940Z,0.70
2022-08-05T15:21:15.986Z,3.20
2022-08-05T15:23:49.052Z,1.27
2022-08-05T15:26:17.594Z,3.30
2022-08-05T15:28:59.885Z,2.20
2022-08-05T15:31:34.745Z,1.10
2022-08-05T15:34:19.025Z,1.03
2022-08-05T15:36:51.240Z,1.33
2022-08-05T15:40:59.541Z,2.60
2022-08-05T15:42:54.804Z,1.83
2022-08-05T15:44:55.015Z,1.77
2022-08-05T15:47:23.578Z,2.70
2022-08-05T15:49:56.950Z,1.93
2022-08-05T15:52:51.894Z,2.10
2022-08-05T15:55:16.570Z,4.20
2022-08-05T15:57:44.952Z,1.43
2022-08-05T16:00:16.688Z,5.47
2022-08-05T16:02:44.495Z,1.60
2022-08-05T16:05:12.144Z,1.87
2022-08-05T16:07:46.563Z,3.20
2022-08-05T16:10:16.495Z,1.60
2022-08-05T16:12:51.473Z,2.90
2022-08-05T16:15:21.689Z,1.03
2022-08-05T16:17:57.969Z,2.23
2022-08-05T16:20:25.639Z,2.40
2022-08-05T16:22:57.457Z,0.83
2022-08-05T16:25:32.167Z,1.13
2022-08-05T16:28:05.843Z,1.63
2022-08-05T16:30:36.131Z,1.70
2022-08-05T16:33:04.205Z,2.17
2022-08-05T16:35:33.535Z,2.23
2022-08-05T16:38:23.810Z,1.43
2022-08-05T16:40:51.668Z,1.40
2022-08-05T16:43:24.145Z,2.33
2022-08-05T16:46:07.178Z,1.47
2022-08-05T16:48:40.605Z,1.20
2022-08-05T16:51:10.215Z,2.73
2022-08-05T16:54:04.853Z,1.03
2022-08-05T16:56:29.744Z,1.80
2022-08-05T16:58:57.791Z,2.80
2022-08-05T17:01:25.422Z,3.80
2022-08-05T17:03:52.931Z,2.90
2022-08-05T17:06:20.869Z,5.13
2022-08-05T17:08:54.593Z,1.73
2022-08-05T17:11:23.765Z,3.43
2022-08-05T17:14:00.398Z,2.90
2022-08-05T17:16:35.971Z,2.83
2022-08-05T17:19:07.785Z,1.67
2022-08-05T17:21:39.694Z,1.80
2022-08-05T17:24:28.461Z,3.93
2022-08-05T17:26:58.530Z,2.97
2022-08-05T17:29:33.410Z,2.40
2022-08-05T17:32:08.449Z,1.70
2022-08-05T17:34:39.526Z,1.93
2022-08-05T17:37:16.903Z,2.23
2022-08-05T17:39:56.321Z,1.47
2022-08-05T17:42:31.897Z,1.87
2022-08-05T17:45:09.967Z,2.03
2022-08-05T17:47:53.439Z,2.00
2022-08-05T17:50:28.406Z,2.67
2022-08-05T17:52:59.515Z,1.90
2022-08-05T17:55:37.272Z,1.40
2022-08-05T17:58:09.907Z,1.73
2022-08-05T18:00:40.797Z,3.33
2022-08-05T18:03:28.081Z,1.67
2022-08-05T18:06:04.525Z,1.37
2022-08-05T18:08:33.328Z,2.33
2022-08-05T18:11:03.258Z,1.33
2022-08-05T18:13:36.937Z,1.23
2022-08-05T18:16:13.690Z,2.13
2022-08-05T18:18:41.678Z,2.00
2022-08-05T18:21:20.067Z,4.53
2022-08-05T18:23:50.155Z,2.63
2022-08-05T18:26:28.991Z,1.30
2022-08-05T18:28:57.945Z,1.20
2022-08-05T18:31:33.048Z,1.20
2022-08-05T18:34:06.138Z,2.17
2022-08-05T18:36:35.387Z,1.67
2022-08-05T18:39:04.020Z,6.70
2022-08-05T18:41:53.343Z,2.33
2022-08-05T18:44:35.032Z,1.27
2022-08-05T18:47:14.832Z,1.00
2022-08-05T18:50:00.531Z,1.47
2022-08-05T18:52:36.851Z,2.07
2022-08-05T18:55:10.611Z,1.87
2022-08-05T18:57:43.083Z,2.90
2022-08-05T19:00:20.626Z,1.70
2022-08-05T19:02:48.424Z,4.37
2022-08-05T19:06:12.179Z,3.40
2022-08-05T19:08:07.687Z,2.97
2022-08-05T19:10:41.049Z,4.03
2022-08-05T19:13:12.255Z,3.33
2022-08-05T19:15:58.350Z,1.90
2022-08-05T19:18:28.703Z,3.67
2022-08-05T19:20:56.640Z,2.67
2022-08-05T19:24:07.034Z,2.13
2022-08-05T19:26:11.904Z,1.70
2022-08-05T19:28:44.504Z,1.20
2022-08-05T19:31:13.767Z,2.00
2022-08-05T19:33:48.313Z,1.93
2022-08-05T19:36:25.158Z,1.43
2022-08-05T19:38:55.120Z,1.97
2022-08-05T19:41:58.504Z,4.47
2022-08-05T19:44:18.348Z,3.40
2022-08-05T19:46:46.443Z,1.30
2022-08-05T19:49:17.028Z,1.77
2022-08-05T19:52:08.710Z,2.80
2022-08-05T19:54:34.254Z,2.23
2022-08-05T19:57:08.441Z,2.00
2022-08-05T20:00:00.489Z,4.23
2022-08-05T20:02:31.446Z,1.70
2022-08-05T20:04:59.814Z,2.27
2022-08-05T20:07:47.528Z,2.97
2022-08-05T20:10:15.768Z,3.20
2022-08-05T20:12:47.910Z,2.47
2022-08-05T20:15:48.252Z,1.83
2022-08-05T20:18:10.709Z,3.50
2022-08-05T20:20:56.628Z,2.77
2022-08-05T20:23:38.768Z,2.43
2022-08-05T20:26:16.402Z,2.50
2022-08-05T20:28:46.057Z,3.67
2022-08-05T20:31:16.617Z,4.90
2022-08-05T20:33:44.986Z,5.57
2022-08-05T20:36:14.171Z,8.23
2022-08-05T20:38:53.628Z,7.23
2022-08-05T20:41:24.127Z,9.73
2022-08-05T20:43:59.824Z,8.43
2022-08-05T20:46:31.810Z,6.17
2022-08-05T20:48:59.222Z,5.93
2022-08-05T20:51:26.855Z,7.80
2022-08-05T20:53:56.760Z,4.73
2022-08-05T20:56:29.956Z,4.33
2022-08-05T20:59:11.275Z,5.53
2022-08-05T21:01:44.853Z,4.80
2022-08-05T21:04:12.553Z,3.13
2022-08-05T21:06:45.024Z,5.07
2022-08-05T21:09:14.285Z,9.17
2022-08-05T21:12:06.952Z,4.70
2022-08-05T21:14:34.785Z,4.33
2022-08-05T21:17:05.267Z,3.53
2022-08-05T21:19:47.122Z,2.97
2022-08-05T21:22:17.763Z,3.70
2022-08-05T21:24:51.965Z,2.60
2022-08-05T21:27:24.634Z,2.70
2022-08-05T21:29:52.288Z,3.67
2022-08-05T21:32:24.542Z,5.20
2022-08-05T21:35:08.906Z,4.77
2022-08-05T21:37:47.245Z,4.83
2022-08-05T21:40:21.848Z,3.97
2022-08-05T21:42:51.946Z,4.70
2022-08-05T21:45:24.989Z,7.80
2022-08-05T21:48:09.329Z,3.37
2022-08-05T21:50:37.328Z,3.73
2022-08-05T21:53:16.466Z,2.77
2022-08-05T21:56:06.211Z,4.20
2022-08-05T21:58:33.071Z,3.17
2022-08-05T22:01:00.739Z,3.30
2022-08-05T22:03:52.630Z,1.83
2022-08-05T22:06:22.769Z,3.53
2022-08-05T22:08:52.151Z,2.73
2022-08-05T22:11:35.054Z,2.80
2022-08-05T22:14:18.238Z,2.67
2022-08-05T22:16:53.036Z,2.57
2022-08-05T22:20:01.661Z,4.13
2022-08-05T22:22:13.070Z,3.23
2022-08-05T22:25:00.613Z,3.23
2022-08-05T22:28:08.359Z,1.03
2022-08-05T22:30:35.186Z,1.93
2022-08-05T22:33:03.925Z,2.80
2022-08-05T22:35:49.139Z,3.60
2022-08-05T22:38:17.011Z,1.57
2022-08-05T22:40:49.604Z,1.60
2022-08-05T22:43:37.451Z,2.70
2022-08-05T22:46:13.110Z,1.83
2022-08-05T22:48:42.077Z,2.77
2022-08-05T22:51:16.116Z,2.57
2022-08-05T22:53:50.455Z,1.33
2022-08-05T22:56:30.010Z,2.23
2022-08-05T22:59:00.093Z,2.00
2022-08-05T23:02:04.756Z,2.47
2022-08-05T23:04:18.755Z,2.07
2022-08-05T23:06:48.112Z,2.07
2022-08-05T23:09:27.652Z,2.00
2022-08-05T23:12:03.639Z,1.60
2022-08-05T23:14:32.283Z,2.40
2022-08-05T23:17:24.485Z,1.70
2022-08-05T23:20:02.605Z,2.87
2022-08-05T23:22:31.412Z,2.37
2022-08-05T23:25:00.500Z,3.10
2022-08-05T23:27:28.824Z,2.73
2022-08-05T23:30:11.109Z,4.33
2022-08-05T23:32:45.132Z,3.47
2022-08-05T23:35:12.930Z,1.97
2022-08-05T23:37:41.958Z,2.53
2022-08-05T23:40:11.722Z,2.10
2022-08-05T23:42:39.162Z,4.10
2022-08-05T23:45:15.879Z,2.47
2022-08-05T23:47:47.954Z,2.03
2022-08-05T23:50:17.072Z,3.93
2022-08-05T23:52:51.564Z,1.37
2022-08-05T23:55:21.371Z,2.87
2022-08-05T23:57:52.753Z,2.23
